<?xml version="1.0" encoding="utf-8"?>
<gpx xmlns:xsi="http://www.w3.org/2001/XMLSchema-instance" xmlns:xsd="http://www.w3.org/2001/XMLSchema" version="1.1" creator="Shapelink.com" xmlns="http://www.topografix.com/GPX/1/1" xmlns:gpxtpx="http://www.garmin.com/xmlschemas/TrackPointExtension/v1">
  <metadata>
    <name>Längdskidåkning - Klassisk 10.00 km, 2011-01-19</name>
    <desc></desc>
    <author><name>Alexander Engvall</name></author> 
    <time>2011-01-19T20:19:10Z</time>
  </metadata>
  <trk>
    <name>Längdskidåkning - Klassisk 10.00 km, 2011-01-19</name>
    <trkseg>
      <trkpt lat="59.5926011" lon="17.5175213">
        <ele>43.8773</ele>
        <time>2011-01-19T20:19:10Z</time>
      </trkpt>
      <trkpt lat="59.5926308" lon="17.5173045">
        <ele>43.8773</ele>
        <time>2011-01-19T20:19:15Z</time>
      </trkpt>
      <trkpt lat="59.5926559" lon="17.5171064">
        <ele>43.3966</ele>
        <time>2011-01-19T20:19:18Z</time>
      </trkpt>
      <trkpt lat="59.5926927" lon="17.5167002">
        <ele>41.474</ele>
        <time>2011-01-19T20:19:22Z</time>
      </trkpt>
      <trkpt lat="59.5927099" lon="17.516582">
        <ele>40.9934</ele>
        <time>2011-01-19T20:19:23Z</time>
      </trkpt>
      <trkpt lat="59.5929096" lon="17.5159998">
        <ele>37.1481</ele>
        <time>2011-01-19T20:19:29Z</time>
      </trkpt>
      <trkpt lat="59.593092" lon="17.5154278">
        <ele>35.2255</ele>
        <time>2011-01-19T20:19:34Z</time>
      </trkpt>
      <trkpt lat="59.5931656" lon="17.5151887">
        <ele>34.7449</ele>
        <time>2011-01-19T20:19:36Z</time>
      </trkpt>
      <trkpt lat="59.5932957" lon="17.5148685">
        <ele>34.2642</ele>
        <time>2011-01-19T20:19:39Z</time>
      </trkpt>
      <trkpt lat="59.593453" lon="17.5146776">
        <ele>34.2642</ele>
        <time>2011-01-19T20:19:42Z</time>
      </trkpt>
      <trkpt lat="59.5936522" lon="17.5145398">
        <ele>34.7449</ele>
        <time>2011-01-19T20:19:46Z</time>
      </trkpt>
      <trkpt lat="59.5937811" lon="17.5144529">
        <ele>36.1868</ele>
        <time>2011-01-19T20:19:49Z</time>
      </trkpt>
      <trkpt lat="59.5938747" lon="17.5144912">
        <ele>38.1094</ele>
        <time>2011-01-19T20:19:52Z</time>
      </trkpt>
      <trkpt lat="59.5940079" lon="17.5147039">
        <ele>40.9934</ele>
        <time>2011-01-19T20:19:58Z</time>
      </trkpt>
      <trkpt lat="59.5940697" lon="17.5148705">
        <ele>42.4354</ele>
        <time>2011-01-19T20:20:02Z</time>
      </trkpt>
      <trkpt lat="59.5941423" lon="17.5150078">
        <ele>41.9547</ele>
        <time>2011-01-19T20:20:07Z</time>
      </trkpt>
      <trkpt lat="59.5942231" lon="17.5151088">
        <ele>42.4354</ele>
        <time>2011-01-19T20:20:11Z</time>
      </trkpt>
      <trkpt lat="59.5943083" lon="17.5152058">
        <ele>43.3966</ele>
        <time>2011-01-19T20:20:15Z</time>
      </trkpt>
      <trkpt lat="59.5943772" lon="17.5152689">
        <ele>43.3966</ele>
        <time>2011-01-19T20:20:18Z</time>
      </trkpt>
      <trkpt lat="59.5945139" lon="17.5154251">
        <ele>45.7999</ele>
        <time>2011-01-19T20:20:25Z</time>
      </trkpt>
      <trkpt lat="59.5946214" lon="17.515494">
        <ele>47.7225</ele>
        <time>2011-01-19T20:20:29Z</time>
      </trkpt>
      <trkpt lat="59.5947353" lon="17.5155569">
        <ele>50.126</ele>
        <time>2011-01-19T20:20:33Z</time>
      </trkpt>
      <trkpt lat="59.5949375" lon="17.5156128">
        <ele>48.684</ele>
        <time>2011-01-19T20:20:39Z</time>
      </trkpt>
      <trkpt lat="59.5950711" lon="17.5156363">
        <ele>48.684</ele>
        <time>2011-01-19T20:20:44Z</time>
      </trkpt>
      <trkpt lat="59.5952117" lon="17.5156253">
        <ele>49.6453</ele>
        <time>2011-01-19T20:20:49Z</time>
      </trkpt>
      <trkpt lat="59.5953336" lon="17.5155636">
        <ele>48.684</ele>
        <time>2011-01-19T20:20:54Z</time>
      </trkpt>
      <trkpt lat="59.5954352" lon="17.5153925">
        <ele>49.6453</ele>
        <time>2011-01-19T20:20:59Z</time>
      </trkpt>
      <trkpt lat="59.595532" lon="17.5151571">
        <ele>49.6453</ele>
        <time>2011-01-19T20:21:04Z</time>
      </trkpt>
      <trkpt lat="59.5956088" lon="17.5147971">
        <ele>49.1646</ele>
        <time>2011-01-19T20:21:09Z</time>
      </trkpt>
      <trkpt lat="59.5956946" lon="17.5144856">
        <ele>49.6453</ele>
        <time>2011-01-19T20:21:13Z</time>
      </trkpt>
      <trkpt lat="59.5957299" lon="17.514256">
        <ele>48.684</ele>
        <time>2011-01-19T20:21:16Z</time>
      </trkpt>
      <trkpt lat="59.5957509" lon="17.5136494">
        <ele>45.7999</ele>
        <time>2011-01-19T20:21:22Z</time>
      </trkpt>
      <trkpt lat="59.5957569" lon="17.5133751">
        <ele>44.358</ele>
        <time>2011-01-19T20:21:24Z</time>
      </trkpt>
      <trkpt lat="59.5958905" lon="17.5128522">
        <ele>42.4354</ele>
        <time>2011-01-19T20:21:28Z</time>
      </trkpt>
      <trkpt lat="59.5960236" lon="17.512741">
        <ele>41.474</ele>
        <time>2011-01-19T20:21:30Z</time>
      </trkpt>
      <trkpt lat="59.5964039" lon="17.5125764">
        <ele>40.9934</ele>
        <time>2011-01-19T20:21:36Z</time>
      </trkpt>
      <trkpt lat="59.5966079" lon="17.5125446">
        <ele>41.9547</ele>
        <time>2011-01-19T20:21:40Z</time>
      </trkpt>
      <trkpt lat="59.5967436" lon="17.5125337">
        <ele>43.3966</ele>
        <time>2011-01-19T20:21:43Z</time>
      </trkpt>
      <trkpt lat="59.5969266" lon="17.5124887">
        <ele>43.8773</ele>
        <time>2011-01-19T20:21:47Z</time>
      </trkpt>
      <trkpt lat="59.5971762" lon="17.5123587">
        <ele>42.916</ele>
        <time>2011-01-19T20:21:53Z</time>
      </trkpt>
      <trkpt lat="59.5972545" lon="17.5123093">
        <ele>43.3966</ele>
        <time>2011-01-19T20:21:55Z</time>
      </trkpt>
      <trkpt lat="59.5973612" lon="17.5122487">
        <ele>42.4354</ele>
        <time>2011-01-19T20:21:58Z</time>
      </trkpt>
      <trkpt lat="59.5975671" lon="17.5121472">
        <ele>42.4354</ele>
        <time>2011-01-19T20:22:03Z</time>
      </trkpt>
      <trkpt lat="59.5976999" lon="17.5120798">
        <ele>42.916</ele>
        <time>2011-01-19T20:22:06Z</time>
      </trkpt>
      <trkpt lat="59.5978967" lon="17.5118977">
        <ele>39.5513</ele>
        <time>2011-01-19T20:22:11Z</time>
      </trkpt>
      <trkpt lat="59.5980335" lon="17.5117475">
        <ele>40.0321</ele>
        <time>2011-01-19T20:22:14Z</time>
      </trkpt>
      <trkpt lat="59.5982864" lon="17.5113762">
        <ele>39.0707</ele>
        <time>2011-01-19T20:22:20Z</time>
      </trkpt>
      <trkpt lat="59.5984359" lon="17.5112139">
        <ele>39.0707</ele>
        <time>2011-01-19T20:22:23Z</time>
      </trkpt>
      <trkpt lat="59.5987914" lon="17.5110144">
        <ele>40.5128</ele>
        <time>2011-01-19T20:22:30Z</time>
      </trkpt>
      <trkpt lat="59.5989342" lon="17.5109569">
        <ele>40.9934</ele>
        <time>2011-01-19T20:22:33Z</time>
      </trkpt>
      <trkpt lat="59.5990168" lon="17.5109048">
        <ele>40.5128</ele>
        <time>2011-01-19T20:22:35Z</time>
      </trkpt>
      <trkpt lat="59.5991569" lon="17.5108507">
        <ele>40.0321</ele>
        <time>2011-01-19T20:22:38Z</time>
      </trkpt>
      <trkpt lat="59.5993354" lon="17.5109255">
        <ele>41.474</ele>
        <time>2011-01-19T20:22:42Z</time>
      </trkpt>
      <trkpt lat="59.5993777" lon="17.5109773">
        <ele>41.474</ele>
        <time>2011-01-19T20:22:43Z</time>
      </trkpt>
      <trkpt lat="59.5994827" lon="17.5111692">
        <ele>40.9934</ele>
        <time>2011-01-19T20:22:46Z</time>
      </trkpt>
      <trkpt lat="59.5995212" lon="17.5113247">
        <ele>41.474</ele>
        <time>2011-01-19T20:22:48Z</time>
      </trkpt>
      <trkpt lat="59.5995534" lon="17.5116471">
        <ele>40.0321</ele>
        <time>2011-01-19T20:22:53Z</time>
      </trkpt>
      <trkpt lat="59.5995481" lon="17.5119019">
        <ele>39.0707</ele>
        <time>2011-01-19T20:22:57Z</time>
      </trkpt>
      <trkpt lat="59.5995191" lon="17.5120277">
        <ele>40.0321</ele>
        <time>2011-01-19T20:22:59Z</time>
      </trkpt>
      <trkpt lat="59.5993789" lon="17.5122743">
        <ele>35.7061</ele>
        <time>2011-01-19T20:23:04Z</time>
      </trkpt>
      <trkpt lat="59.5992749" lon="17.5124422">
        <ele>34.2642</ele>
        <time>2011-01-19T20:23:08Z</time>
      </trkpt>
      <trkpt lat="59.59921" lon="17.5127172">
        <ele>35.2255</ele>
        <time>2011-01-19T20:23:13Z</time>
      </trkpt>
      <trkpt lat="59.599233" lon="17.5130155">
        <ele>36.1868</ele>
        <time>2011-01-19T20:23:17Z</time>
      </trkpt>
      <trkpt lat="59.5992181" lon="17.5133268">
        <ele>36.6675</ele>
        <time>2011-01-19T20:23:21Z</time>
      </trkpt>
      <trkpt lat="59.5991071" lon="17.5135481">
        <ele>34.2642</ele>
        <time>2011-01-19T20:23:26Z</time>
      </trkpt>
      <trkpt lat="59.5989654" lon="17.5137826">
        <ele>28.4962</ele>
        <time>2011-01-19T20:23:32Z</time>
      </trkpt>
      <trkpt lat="59.598867" lon="17.5138189">
        <ele>27.5349</ele>
        <time>2011-01-19T20:23:36Z</time>
      </trkpt>
      <trkpt lat="59.5987676" lon="17.513819">
        <ele>27.0543</ele>
        <time>2011-01-19T20:23:41Z</time>
      </trkpt>
      <trkpt lat="59.5986452" lon="17.5137836">
        <ele>26.5736</ele>
        <time>2011-01-19T20:23:45Z</time>
      </trkpt>
      <trkpt lat="59.5984821" lon="17.5138186">
        <ele>29.9381</ele>
        <time>2011-01-19T20:23:49Z</time>
      </trkpt>
      <trkpt lat="59.5983334" lon="17.5138459">
        <ele>33.3029</ele>
        <time>2011-01-19T20:23:53Z</time>
      </trkpt>
      <trkpt lat="59.598211" lon="17.5138842">
        <ele>34.2642</ele>
        <time>2011-01-19T20:23:57Z</time>
      </trkpt>
      <trkpt lat="59.5980992" lon="17.5139022">
        <ele>36.1868</ele>
        <time>2011-01-19T20:24:02Z</time>
      </trkpt>
      <trkpt lat="59.5979634" lon="17.5139955">
        <ele>40.0321</ele>
        <time>2011-01-19T20:24:07Z</time>
      </trkpt>
      <trkpt lat="59.5978411" lon="17.5142178">
        <ele>41.474</ele>
        <time>2011-01-19T20:24:12Z</time>
      </trkpt>
      <trkpt lat="59.5977356" lon="17.514415">
        <ele>41.9547</ele>
        <time>2011-01-19T20:24:16Z</time>
      </trkpt>
      <trkpt lat="59.5976011" lon="17.5145525">
        <ele>40.9934</ele>
        <time>2011-01-19T20:24:20Z</time>
      </trkpt>
      <trkpt lat="59.5974638" lon="17.5146598">
        <ele>40.0321</ele>
        <time>2011-01-19T20:24:24Z</time>
      </trkpt>
      <trkpt lat="59.5973617" lon="17.5147167">
        <ele>38.5901</ele>
        <time>2011-01-19T20:24:27Z</time>
      </trkpt>
      <trkpt lat="59.5972124" lon="17.5147881">
        <ele>37.1481</ele>
        <time>2011-01-19T20:24:31Z</time>
      </trkpt>
      <trkpt lat="59.5970979" lon="17.514828">
        <ele>36.1868</ele>
        <time>2011-01-19T20:24:35Z</time>
      </trkpt>
      <trkpt lat="59.5969727" lon="17.5148776">
        <ele>35.7061</ele>
        <time>2011-01-19T20:24:39Z</time>
      </trkpt>
      <trkpt lat="59.5968327" lon="17.5150331">
        <ele>36.1868</ele>
        <time>2011-01-19T20:24:44Z</time>
      </trkpt>
      <trkpt lat="59.596714" lon="17.5151428">
        <ele>36.6675</ele>
        <time>2011-01-19T20:24:48Z</time>
      </trkpt>
      <trkpt lat="59.596611" lon="17.5152507">
        <ele>38.5901</ele>
        <time>2011-01-19T20:24:53Z</time>
      </trkpt>
      <trkpt lat="59.5965157" lon="17.515341">
        <ele>39.5513</ele>
        <time>2011-01-19T20:24:58Z</time>
      </trkpt>
      <trkpt lat="59.596414" lon="17.5154511">
        <ele>40.5128</ele>
        <time>2011-01-19T20:25:03Z</time>
      </trkpt>
      <trkpt lat="59.596298" lon="17.5155463">
        <ele>41.9547</ele>
        <time>2011-01-19T20:25:08Z</time>
      </trkpt>
      <trkpt lat="59.5961468" lon="17.5156864">
        <ele>43.8773</ele>
        <time>2011-01-19T20:25:14Z</time>
      </trkpt>
      <trkpt lat="59.5960372" lon="17.5158206">
        <ele>44.358</ele>
        <time>2011-01-19T20:25:18Z</time>
      </trkpt>
      <trkpt lat="59.5959195" lon="17.5159754">
        <ele>44.358</ele>
        <time>2011-01-19T20:25:22Z</time>
      </trkpt>
      <trkpt lat="59.5958286" lon="17.516182">
        <ele>46.7612</ele>
        <time>2011-01-19T20:25:27Z</time>
      </trkpt>
      <trkpt lat="59.5957796" lon="17.5164169">
        <ele>49.6453</ele>
        <time>2011-01-19T20:25:32Z</time>
      </trkpt>
      <trkpt lat="59.5957247" lon="17.5167834">
        <ele>52.5292</ele>
        <time>2011-01-19T20:25:38Z</time>
      </trkpt>
      <trkpt lat="59.5956459" lon="17.517075">
        <ele>53.4905</ele>
        <time>2011-01-19T20:25:42Z</time>
      </trkpt>
      <trkpt lat="59.5955859" lon="17.5172384">
        <ele>53.4905</ele>
        <time>2011-01-19T20:25:44Z</time>
      </trkpt>
      <trkpt lat="59.595313" lon="17.5175083">
        <ele>50.6066</ele>
        <time>2011-01-19T20:25:48Z</time>
      </trkpt>
      <trkpt lat="59.5952336" lon="17.5175439">
        <ele>50.126</ele>
        <time>2011-01-19T20:25:49Z</time>
      </trkpt>
      <trkpt lat="59.5946745" lon="17.5177067">
        <ele>47.2418</ele>
        <time>2011-01-19T20:25:57Z</time>
      </trkpt>
      <trkpt lat="59.5944986" lon="17.5177678">
        <ele>46.2806</ele>
        <time>2011-01-19T20:26:00Z</time>
      </trkpt>
      <trkpt lat="59.5942303" lon="17.5179522">
        <ele>46.2806</ele>
        <time>2011-01-19T20:26:05Z</time>
      </trkpt>
      <trkpt lat="59.5939904" lon="17.5181723">
        <ele>46.2806</ele>
        <time>2011-01-19T20:26:10Z</time>
      </trkpt>
      <trkpt lat="59.5939039" lon="17.5182203">
        <ele>45.3192</ele>
        <time>2011-01-19T20:26:12Z</time>
      </trkpt>
      <trkpt lat="59.593721" lon="17.5182831">
        <ele>43.3966</ele>
        <time>2011-01-19T20:26:16Z</time>
      </trkpt>
      <trkpt lat="59.5934917" lon="17.5184315">
        <ele>40.5128</ele>
        <time>2011-01-19T20:26:21Z</time>
      </trkpt>
      <trkpt lat="59.5934584" lon="17.5184786">
        <ele>40.0321</ele>
        <time>2011-01-19T20:26:22Z</time>
      </trkpt>
      <trkpt lat="59.5933227" lon="17.5187137">
        <ele>37.6287</ele>
        <time>2011-01-19T20:26:26Z</time>
      </trkpt>
      <trkpt lat="59.5931652" lon="17.5188603">
        <ele>35.2255</ele>
        <time>2011-01-19T20:26:30Z</time>
      </trkpt>
      <trkpt lat="59.5929763" lon="17.5188279">
        <ele>32.3416</ele>
        <time>2011-01-19T20:26:34Z</time>
      </trkpt>
      <trkpt lat="59.5928337" lon="17.5186376">
        <ele>33.3029</ele>
        <time>2011-01-19T20:26:38Z</time>
      </trkpt>
      <trkpt lat="59.5927622" lon="17.5185324">
        <ele>32.8223</ele>
        <time>2011-01-19T20:26:40Z</time>
      </trkpt>
      <trkpt lat="59.5927025" lon="17.5183995">
        <ele>31.8607</ele>
        <time>2011-01-19T20:26:42Z</time>
      </trkpt>
      <trkpt lat="59.5926501" lon="17.5182506">
        <ele>33.3029</ele>
        <time>2011-01-19T20:26:44Z</time>
      </trkpt>
      <trkpt lat="59.5925902" lon="17.5178347">
        <ele>36.1868</ele>
        <time>2011-01-19T20:26:49Z</time>
      </trkpt>
      <trkpt lat="59.5925968" lon="17.5175513">
        <ele>37.6287</ele>
        <time>2011-01-19T20:26:52Z</time>
      </trkpt>
      <trkpt lat="59.5926207" lon="17.5172855">
        <ele>37.6287</ele>
        <time>2011-01-19T20:26:55Z</time>
      </trkpt>
      <trkpt lat="59.5926399" lon="17.5170125">
        <ele>37.6287</ele>
        <time>2011-01-19T20:26:58Z</time>
      </trkpt>
      <trkpt lat="59.5926875" lon="17.5165897">
        <ele>38.1094</ele>
        <time>2011-01-19T20:27:02Z</time>
      </trkpt>
      <trkpt lat="59.592881" lon="17.5159528">
        <ele>38.1094</ele>
        <time>2011-01-19T20:27:08Z</time>
      </trkpt>
      <trkpt lat="59.5931148" lon="17.5152762">
        <ele>39.0707</ele>
        <time>2011-01-19T20:27:14Z</time>
      </trkpt>
      <trkpt lat="59.5932497" lon="17.5149455">
        <ele>40.0321</ele>
        <time>2011-01-19T20:27:17Z</time>
      </trkpt>
      <trkpt lat="59.5933491" lon="17.51476">
        <ele>39.0707</ele>
        <time>2011-01-19T20:27:19Z</time>
      </trkpt>
      <trkpt lat="59.5935558" lon="17.5145536">
        <ele>39.0707</ele>
        <time>2011-01-19T20:27:23Z</time>
      </trkpt>
      <trkpt lat="59.5937997" lon="17.5145088">
        <ele>38.5901</ele>
        <time>2011-01-19T20:27:29Z</time>
      </trkpt>
      <trkpt lat="59.593937" lon="17.5146462">
        <ele>38.5901</ele>
        <time>2011-01-19T20:27:33Z</time>
      </trkpt>
      <trkpt lat="59.5939645" lon="17.5146895">
        <ele>39.0707</ele>
        <time>2011-01-19T20:27:34Z</time>
      </trkpt>
      <trkpt lat="59.5941066" lon="17.5149668">
        <ele>40.5128</ele>
        <time>2011-01-19T20:27:40Z</time>
      </trkpt>
      <trkpt lat="59.5942147" lon="17.5151523">
        <ele>41.474</ele>
        <time>2011-01-19T20:27:45Z</time>
      </trkpt>
      <trkpt lat="59.5942301" lon="17.515183">
        <ele>41.9547</ele>
        <time>2011-01-19T20:27:46Z</time>
      </trkpt>
      <trkpt lat="59.5943262" lon="17.5153114">
        <ele>41.9547</ele>
        <time>2011-01-19T20:27:50Z</time>
      </trkpt>
      <trkpt lat="59.5944597" lon="17.5154243">
        <ele>44.8386</ele>
        <time>2011-01-19T20:27:56Z</time>
      </trkpt>
      <trkpt lat="59.5946092" lon="17.515517">
        <ele>47.2418</ele>
        <time>2011-01-19T20:28:01Z</time>
      </trkpt>
      <trkpt lat="59.5948045" lon="17.5155836">
        <ele>50.126</ele>
        <time>2011-01-19T20:28:07Z</time>
      </trkpt>
      <trkpt lat="59.5949695" lon="17.5156232">
        <ele>50.126</ele>
        <time>2011-01-19T20:28:12Z</time>
      </trkpt>
      <trkpt lat="59.5951136" lon="17.5156171">
        <ele>50.6066</ele>
        <time>2011-01-19T20:28:17Z</time>
      </trkpt>
      <trkpt lat="59.5952306" lon="17.5155744">
        <ele>51.0872</ele>
        <time>2011-01-19T20:28:21Z</time>
      </trkpt>
      <trkpt lat="59.5953451" lon="17.5155039">
        <ele>50.6066</ele>
        <time>2011-01-19T20:28:25Z</time>
      </trkpt>
      <trkpt lat="59.5954433" lon="17.5153303">
        <ele>51.5679</ele>
        <time>2011-01-19T20:28:30Z</time>
      </trkpt>
      <trkpt lat="59.5955562" lon="17.514974">
        <ele>51.0872</ele>
        <time>2011-01-19T20:28:36Z</time>
      </trkpt>
      <trkpt lat="59.5956175" lon="17.5145911">
        <ele>51.0872</ele>
        <time>2011-01-19T20:28:41Z</time>
      </trkpt>
      <trkpt lat="59.5956646" lon="17.5142723">
        <ele>51.5679</ele>
        <time>2011-01-19T20:28:45Z</time>
      </trkpt>
      <trkpt lat="59.5956912" lon="17.5138282">
        <ele>51.5679</ele>
        <time>2011-01-19T20:28:50Z</time>
      </trkpt>
      <trkpt lat="59.5957097" lon="17.5134216">
        <ele>50.126</ele>
        <time>2011-01-19T20:28:53Z</time>
      </trkpt>
      <trkpt lat="59.5958619" lon="17.5128766">
        <ele>47.7225</ele>
        <time>2011-01-19T20:28:57Z</time>
      </trkpt>
      <trkpt lat="59.5960025" lon="17.5127528">
        <ele>46.7612</ele>
        <time>2011-01-19T20:28:59Z</time>
      </trkpt>
      <trkpt lat="59.5964054" lon="17.512593">
        <ele>45.7999</ele>
        <time>2011-01-19T20:29:05Z</time>
      </trkpt>
      <trkpt lat="59.5964607" lon="17.5125807">
        <ele>45.7999</ele>
        <time>2011-01-19T20:29:06Z</time>
      </trkpt>
      <trkpt lat="59.5967191" lon="17.5125276">
        <ele>46.2806</ele>
        <time>2011-01-19T20:29:11Z</time>
      </trkpt>
      <trkpt lat="59.5969553" lon="17.5123835">
        <ele>46.2806</ele>
        <time>2011-01-19T20:29:16Z</time>
      </trkpt>
      <trkpt lat="59.5969947" lon="17.5123587">
        <ele>45.7999</ele>
        <time>2011-01-19T20:29:17Z</time>
      </trkpt>
      <trkpt lat="59.5970832" lon="17.5123168">
        <ele>45.3192</ele>
        <time>2011-01-19T20:29:19Z</time>
      </trkpt>
      <trkpt lat="59.5972535" lon="17.5122291">
        <ele>45.7999</ele>
        <time>2011-01-19T20:29:23Z</time>
      </trkpt>
      <trkpt lat="59.5973457" lon="17.5122095">
        <ele>45.7999</ele>
        <time>2011-01-19T20:29:25Z</time>
      </trkpt>
      <trkpt lat="59.5975932" lon="17.5120923">
        <ele>44.358</ele>
        <time>2011-01-19T20:29:30Z</time>
      </trkpt>
      <trkpt lat="59.597758" lon="17.51199">
        <ele>43.8773</ele>
        <time>2011-01-19T20:29:34Z</time>
      </trkpt>
      <trkpt lat="59.5980018" lon="17.5117583">
        <ele>43.3966</ele>
        <time>2011-01-19T20:29:39Z</time>
      </trkpt>
      <trkpt lat="59.5981697" lon="17.5115019">
        <ele>41.9547</ele>
        <time>2011-01-19T20:29:43Z</time>
      </trkpt>
      <trkpt lat="59.5983535" lon="17.5112557">
        <ele>40.5128</ele>
        <time>2011-01-19T20:29:47Z</time>
      </trkpt>
      <trkpt lat="59.5986722" lon="17.5110362">
        <ele>38.5901</ele>
        <time>2011-01-19T20:29:53Z</time>
      </trkpt>
      <trkpt lat="59.5987238" lon="17.5110114">
        <ele>38.5901</ele>
        <time>2011-01-19T20:29:54Z</time>
      </trkpt>
      <trkpt lat="59.598867" lon="17.5109092">
        <ele>38.1094</ele>
        <time>2011-01-19T20:29:57Z</time>
      </trkpt>
      <trkpt lat="59.5989669" lon="17.5108575">
        <ele>38.1094</ele>
        <time>2011-01-19T20:29:59Z</time>
      </trkpt>
      <trkpt lat="59.5990165" lon="17.51083">
        <ele>38.1094</ele>
        <time>2011-01-19T20:30:00Z</time>
      </trkpt>
      <trkpt lat="59.5992848" lon="17.5108596">
        <ele>37.1481</ele>
        <time>2011-01-19T20:30:05Z</time>
      </trkpt>
      <trkpt lat="59.5994676" lon="17.5110829">
        <ele>35.7061</ele>
        <time>2011-01-19T20:30:09Z</time>
      </trkpt>
      <trkpt lat="59.5995543" lon="17.5114807">
        <ele>37.1481</ele>
        <time>2011-01-19T20:30:14Z</time>
      </trkpt>
      <trkpt lat="59.5995606" lon="17.5117366">
        <ele>37.6287</ele>
        <time>2011-01-19T20:30:17Z</time>
      </trkpt>
      <trkpt lat="59.5995254" lon="17.5120612">
        <ele>37.6287</ele>
        <time>2011-01-19T20:30:21Z</time>
      </trkpt>
      <trkpt lat="59.5994013" lon="17.5123085">
        <ele>30.8995</ele>
        <time>2011-01-19T20:30:25Z</time>
      </trkpt>
      <trkpt lat="59.5992749" lon="17.5124995">
        <ele>26.5736</ele>
        <time>2011-01-19T20:30:29Z</time>
      </trkpt>
      <trkpt lat="59.5992273" lon="17.5129268">
        <ele>29.4575</ele>
        <time>2011-01-19T20:30:35Z</time>
      </trkpt>
      <trkpt lat="59.5992164" lon="17.5132621">
        <ele>28.4962</ele>
        <time>2011-01-19T20:30:39Z</time>
      </trkpt>
      <trkpt lat="59.5991705" lon="17.5134173">
        <ele>28.0155</ele>
        <time>2011-01-19T20:30:42Z</time>
      </trkpt>
      <trkpt lat="59.5990572" lon="17.513632">
        <ele>28.0155</ele>
        <time>2011-01-19T20:30:48Z</time>
      </trkpt>
      <trkpt lat="59.5989436" lon="17.5137988">
        <ele>27.5349</ele>
        <time>2011-01-19T20:30:52Z</time>
      </trkpt>
      <trkpt lat="59.5988421" lon="17.5139055">
        <ele>28.0155</ele>
        <time>2011-01-19T20:30:56Z</time>
      </trkpt>
      <trkpt lat="59.5986987" lon="17.5139341">
        <ele>29.9381</ele>
        <time>2011-01-19T20:31:02Z</time>
      </trkpt>
      <trkpt lat="59.5986722" lon="17.5139407">
        <ele>29.9381</ele>
        <time>2011-01-19T20:31:03Z</time>
      </trkpt>
      <trkpt lat="59.5985535" lon="17.5139147">
        <ele>30.4188</ele>
        <time>2011-01-19T20:31:07Z</time>
      </trkpt>
      <trkpt lat="59.5983552" lon="17.5139147">
        <ele>31.8607</ele>
        <time>2011-01-19T20:31:13Z</time>
      </trkpt>
      <trkpt lat="59.5982455" lon="17.5139277">
        <ele>31.8607</ele>
        <time>2011-01-19T20:31:17Z</time>
      </trkpt>
      <trkpt lat="59.5981139" lon="17.5139584">
        <ele>33.3029</ele>
        <time>2011-01-19T20:31:22Z</time>
      </trkpt>
      <trkpt lat="59.5979786" lon="17.5140303">
        <ele>35.2255</ele>
        <time>2011-01-19T20:31:27Z</time>
      </trkpt>
      <trkpt lat="59.5978986" lon="17.5141092">
        <ele>35.7061</ele>
        <time>2011-01-19T20:31:30Z</time>
      </trkpt>
      <trkpt lat="59.5978149" lon="17.5142686">
        <ele>36.6675</ele>
        <time>2011-01-19T20:31:34Z</time>
      </trkpt>
      <trkpt lat="59.5977154" lon="17.5144423">
        <ele>36.6675</ele>
        <time>2011-01-19T20:31:38Z</time>
      </trkpt>
      <trkpt lat="59.5975735" lon="17.5145723">
        <ele>37.6287</ele>
        <time>2011-01-19T20:31:43Z</time>
      </trkpt>
      <trkpt lat="59.5974947" lon="17.5146087">
        <ele>37.1481</ele>
        <time>2011-01-19T20:31:46Z</time>
      </trkpt>
      <trkpt lat="59.5973715" lon="17.5146802">
        <ele>36.6675</ele>
        <time>2011-01-19T20:31:50Z</time>
      </trkpt>
      <trkpt lat="59.597248" lon="17.5147067">
        <ele>36.6675</ele>
        <time>2011-01-19T20:31:54Z</time>
      </trkpt>
      <trkpt lat="59.597105" lon="17.5147596">
        <ele>36.6675</ele>
        <time>2011-01-19T20:31:58Z</time>
      </trkpt>
      <trkpt lat="59.5969859" lon="17.5148063">
        <ele>37.6287</ele>
        <time>2011-01-19T20:32:02Z</time>
      </trkpt>
      <trkpt lat="59.5968297" lon="17.5149513">
        <ele>37.6287</ele>
        <time>2011-01-19T20:32:07Z</time>
      </trkpt>
      <trkpt lat="59.5966996" lon="17.5150668">
        <ele>38.1094</ele>
        <time>2011-01-19T20:32:11Z</time>
      </trkpt>
      <trkpt lat="59.5965924" lon="17.5151807">
        <ele>38.1094</ele>
        <time>2011-01-19T20:32:15Z</time>
      </trkpt>
      <trkpt lat="59.5964948" lon="17.5152933">
        <ele>39.0707</ele>
        <time>2011-01-19T20:32:19Z</time>
      </trkpt>
      <trkpt lat="59.5963588" lon="17.5154496">
        <ele>39.0707</ele>
        <time>2011-01-19T20:32:24Z</time>
      </trkpt>
      <trkpt lat="59.5962478" lon="17.5155724">
        <ele>38.5901</ele>
        <time>2011-01-19T20:32:28Z</time>
      </trkpt>
      <trkpt lat="59.5961491" lon="17.5156803">
        <ele>38.5901</ele>
        <time>2011-01-19T20:32:32Z</time>
      </trkpt>
      <trkpt lat="59.5960396" lon="17.5157983">
        <ele>39.5513</ele>
        <time>2011-01-19T20:32:36Z</time>
      </trkpt>
      <trkpt lat="59.5959281" lon="17.5159261">
        <ele>40.0321</ele>
        <time>2011-01-19T20:32:40Z</time>
      </trkpt>
      <trkpt lat="59.5958194" lon="17.516096">
        <ele>42.4354</ele>
        <time>2011-01-19T20:32:45Z</time>
      </trkpt>
      <trkpt lat="59.5957727" lon="17.5162329">
        <ele>44.8386</ele>
        <time>2011-01-19T20:32:49Z</time>
      </trkpt>
      <trkpt lat="59.5957268" lon="17.5165712">
        <ele>47.7225</ele>
        <time>2011-01-19T20:32:54Z</time>
      </trkpt>
      <trkpt lat="59.595702" lon="17.5169104">
        <ele>47.7225</ele>
        <time>2011-01-19T20:32:58Z</time>
      </trkpt>
      <trkpt lat="59.5956796" lon="17.5170851">
        <ele>47.2418</ele>
        <time>2011-01-19T20:33:00Z</time>
      </trkpt>
      <trkpt lat="59.5954776" lon="17.5174326">
        <ele>45.3192</ele>
        <time>2011-01-19T20:33:04Z</time>
      </trkpt>
      <trkpt lat="59.5952346" lon="17.5175783">
        <ele>43.8773</ele>
        <time>2011-01-19T20:33:07Z</time>
      </trkpt>
      <trkpt lat="59.5946429" lon="17.5177438">
        <ele>43.8773</ele>
        <time>2011-01-19T20:33:15Z</time>
      </trkpt>
      <trkpt lat="59.5944025" lon="17.5178169">
        <ele>43.3966</ele>
        <time>2011-01-19T20:33:19Z</time>
      </trkpt>
      <trkpt lat="59.5942832" lon="17.517904">
        <ele>42.4354</ele>
        <time>2011-01-19T20:33:21Z</time>
      </trkpt>
      <trkpt lat="59.5940273" lon="17.518034">
        <ele>41.9547</ele>
        <time>2011-01-19T20:33:25Z</time>
      </trkpt>
      <trkpt lat="59.5938537" lon="17.5181639">
        <ele>42.4354</ele>
        <time>2011-01-19T20:33:29Z</time>
      </trkpt>
      <trkpt lat="59.5936706" lon="17.5181947">
        <ele>41.9547</ele>
        <time>2011-01-19T20:33:34Z</time>
      </trkpt>
      <trkpt lat="59.5934237" lon="17.5184463">
        <ele>41.474</ele>
        <time>2011-01-19T20:33:40Z</time>
      </trkpt>
      <trkpt lat="59.5933885" lon="17.5185097">
        <ele>41.474</ele>
        <time>2011-01-19T20:33:41Z</time>
      </trkpt>
      <trkpt lat="59.5931694" lon="17.5187834">
        <ele>40.5128</ele>
        <time>2011-01-19T20:33:46Z</time>
      </trkpt>
      <trkpt lat="59.5931247" lon="17.5188125">
        <ele>40.0321</ele>
        <time>2011-01-19T20:33:47Z</time>
      </trkpt>
      <trkpt lat="59.5929545" lon="17.5188028">
        <ele>38.5901</ele>
        <time>2011-01-19T20:33:51Z</time>
      </trkpt>
      <trkpt lat="59.5928373" lon="17.5186677">
        <ele>39.0707</ele>
        <time>2011-01-19T20:33:54Z</time>
      </trkpt>
      <trkpt lat="59.592742" lon="17.518466">
        <ele>38.5901</ele>
        <time>2011-01-19T20:33:57Z</time>
      </trkpt>
      <trkpt lat="59.5926149" lon="17.5181785">
        <ele>36.6675</ele>
        <time>2011-01-19T20:34:01Z</time>
      </trkpt>
      <trkpt lat="59.5925564" lon="17.5177746">
        <ele>37.6287</ele>
        <time>2011-01-19T20:34:06Z</time>
      </trkpt>
      <trkpt lat="59.5925828" lon="17.5173767">
        <ele>38.5901</ele>
        <time>2011-01-19T20:34:11Z</time>
      </trkpt>
      <trkpt lat="59.5926218" lon="17.5168745">
        <ele>39.5513</ele>
        <time>2011-01-19T20:34:17Z</time>
      </trkpt>
      <trkpt lat="59.5926429" lon="17.5166544">
        <ele>40.0321</ele>
        <time>2011-01-19T20:34:19Z</time>
      </trkpt>
      <trkpt lat="59.5927603" lon="17.5162571">
        <ele>40.0321</ele>
        <time>2011-01-19T20:34:23Z</time>
      </trkpt>
      <trkpt lat="59.5930267" lon="17.515516">
        <ele>40.0321</ele>
        <time>2011-01-19T20:34:30Z</time>
      </trkpt>
      <trkpt lat="59.5932893" lon="17.5148506">
        <ele>38.5901</ele>
        <time>2011-01-19T20:34:36Z</time>
      </trkpt>
      <trkpt lat="59.5935416" lon="17.5145814">
        <ele>37.6287</ele>
        <time>2011-01-19T20:34:41Z</time>
      </trkpt>
      <trkpt lat="59.5936391" lon="17.5145271">
        <ele>37.6287</ele>
        <time>2011-01-19T20:34:43Z</time>
      </trkpt>
      <trkpt lat="59.5937251" lon="17.5145002">
        <ele>38.1094</ele>
        <time>2011-01-19T20:34:45Z</time>
      </trkpt>
      <trkpt lat="59.5938965" lon="17.5145799">
        <ele>39.5513</ele>
        <time>2011-01-19T20:34:50Z</time>
      </trkpt>
      <trkpt lat="59.5940058" lon="17.5148113">
        <ele>41.474</ele>
        <time>2011-01-19T20:34:56Z</time>
      </trkpt>
      <trkpt lat="59.5940769" lon="17.5149719">
        <ele>42.4354</ele>
        <time>2011-01-19T20:35:00Z</time>
      </trkpt>
      <trkpt lat="59.5941541" lon="17.5150949">
        <ele>41.9547</ele>
        <time>2011-01-19T20:35:04Z</time>
      </trkpt>
      <trkpt lat="59.5942676" lon="17.515211">
        <ele>40.5128</ele>
        <time>2011-01-19T20:35:09Z</time>
      </trkpt>
      <trkpt lat="59.5943437" lon="17.5153154">
        <ele>38.5901</ele>
        <time>2011-01-19T20:35:13Z</time>
      </trkpt>
      <trkpt lat="59.5943821" lon="17.5153289">
        <ele>38.1094</ele>
        <time>2011-01-19T20:35:15Z</time>
      </trkpt>
      <trkpt lat="59.594527" lon="17.5154256">
        <ele>42.4354</ele>
        <time>2011-01-19T20:35:20Z</time>
      </trkpt>
      <trkpt lat="59.5946214" lon="17.5154743">
        <ele>46.7612</ele>
        <time>2011-01-19T20:35:23Z</time>
      </trkpt>
      <trkpt lat="59.5947492" lon="17.515518">
        <ele>49.1646</ele>
        <time>2011-01-19T20:35:27Z</time>
      </trkpt>
      <trkpt lat="59.5949654" lon="17.5155855">
        <ele>51.0872</ele>
        <time>2011-01-19T20:35:33Z</time>
      </trkpt>
      <trkpt lat="59.5951072" lon="17.5156129">
        <ele>53.4905</ele>
        <time>2011-01-19T20:35:38Z</time>
      </trkpt>
      <trkpt lat="59.5952415" lon="17.5155671">
        <ele>53.9712</ele>
        <time>2011-01-19T20:35:43Z</time>
      </trkpt>
      <trkpt lat="59.595371" lon="17.5154119">
        <ele>54.9324</ele>
        <time>2011-01-19T20:35:49Z</time>
      </trkpt>
      <trkpt lat="59.5954543" lon="17.5152236">
        <ele>54.4518</ele>
        <time>2011-01-19T20:35:53Z</time>
      </trkpt>
      <trkpt lat="59.5955634" lon="17.5148529">
        <ele>53.0098</ele>
        <time>2011-01-19T20:35:59Z</time>
      </trkpt>
      <trkpt lat="59.5956465" lon="17.5144642">
        <ele>52.5292</ele>
        <time>2011-01-19T20:36:04Z</time>
      </trkpt>
      <trkpt lat="59.5956982" lon="17.514176">
        <ele>53.4905</ele>
        <time>2011-01-19T20:36:08Z</time>
      </trkpt>
      <trkpt lat="59.595719" lon="17.513677">
        <ele>52.0486</ele>
        <time>2011-01-19T20:36:13Z</time>
      </trkpt>
      <trkpt lat="59.5957298" lon="17.5134055">
        <ele>50.126</ele>
        <time>2011-01-19T20:36:15Z</time>
      </trkpt>
      <trkpt lat="59.5958577" lon="17.5128789">
        <ele>47.2418</ele>
        <time>2011-01-19T20:36:19Z</time>
      </trkpt>
      <trkpt lat="59.5959904" lon="17.5127563">
        <ele>45.7999</ele>
        <time>2011-01-19T20:36:21Z</time>
      </trkpt>
      <trkpt lat="59.5963862" lon="17.5126048">
        <ele>44.358</ele>
        <time>2011-01-19T20:36:27Z</time>
      </trkpt>
      <trkpt lat="59.5964417" lon="17.512596">
        <ele>44.358</ele>
        <time>2011-01-19T20:36:28Z</time>
      </trkpt>
      <trkpt lat="59.5966966" lon="17.5125959">
        <ele>41.9547</ele>
        <time>2011-01-19T20:36:33Z</time>
      </trkpt>
      <trkpt lat="59.5967509" lon="17.5125996">
        <ele>40.9934</ele>
        <time>2011-01-19T20:36:34Z</time>
      </trkpt>
      <trkpt lat="59.597027" lon="17.5124578">
        <ele>37.1481</ele>
        <time>2011-01-19T20:36:39Z</time>
      </trkpt>
      <trkpt lat="59.5970796" lon="17.5124318">
        <ele>36.1868</ele>
        <time>2011-01-19T20:36:40Z</time>
      </trkpt>
      <trkpt lat="59.5973688" lon="17.5122897">
        <ele>38.5901</ele>
        <time>2011-01-19T20:36:46Z</time>
      </trkpt>
      <trkpt lat="59.5975189" lon="17.5122008">
        <ele>38.1094</ele>
        <time>2011-01-19T20:36:49Z</time>
      </trkpt>
      <trkpt lat="59.5977525" lon="17.5119977">
        <ele>37.1481</ele>
        <time>2011-01-19T20:36:54Z</time>
      </trkpt>
      <trkpt lat="59.5978849" lon="17.511863">
        <ele>35.7061</ele>
        <time>2011-01-19T20:36:57Z</time>
      </trkpt>
      <trkpt lat="59.5982086" lon="17.5114028">
        <ele>34.7449</ele>
        <time>2011-01-19T20:37:04Z</time>
      </trkpt>
      <trkpt lat="59.5983525" lon="17.511223">
        <ele>34.2642</ele>
        <time>2011-01-19T20:37:07Z</time>
      </trkpt>
      <trkpt lat="59.5985197" lon="17.5110855">
        <ele>33.7834</ele>
        <time>2011-01-19T20:37:10Z</time>
      </trkpt>
      <trkpt lat="59.5988307" lon="17.5109158">
        <ele>35.2255</ele>
        <time>2011-01-19T20:37:16Z</time>
      </trkpt>
      <trkpt lat="59.5990409" lon="17.5107974">
        <ele>36.6675</ele>
        <time>2011-01-19T20:37:20Z</time>
      </trkpt>
      <trkpt lat="59.5992083" lon="17.510786">
        <ele>35.7061</ele>
        <time>2011-01-19T20:37:23Z</time>
      </trkpt>
      <trkpt lat="59.5994249" lon="17.5109496">
        <ele>34.7449</ele>
        <time>2011-01-19T20:37:27Z</time>
      </trkpt>
      <trkpt lat="59.5995429" lon="17.5112594">
        <ele>34.2642</ele>
        <time>2011-01-19T20:37:31Z</time>
      </trkpt>
      <trkpt lat="59.5995601" lon="17.5113397">
        <ele>34.7449</ele>
        <time>2011-01-19T20:37:32Z</time>
      </trkpt>
      <trkpt lat="59.5995781" lon="17.511649">
        <ele>32.3416</ele>
        <time>2011-01-19T20:37:36Z</time>
      </trkpt>
      <trkpt lat="59.5995673" lon="17.5119557">
        <ele>28.9769</ele>
        <time>2011-01-19T20:37:40Z</time>
      </trkpt>
      <trkpt lat="59.5994782" lon="17.5121431">
        <ele>24.651</ele>
        <time>2011-01-19T20:37:43Z</time>
      </trkpt>
      <trkpt lat="59.599339" lon="17.5123152">
        <ele>21.2864</ele>
        <time>2011-01-19T20:37:47Z</time>
      </trkpt>
      <trkpt lat="59.5992192" lon="17.5125322">
        <ele>21.2864</ele>
        <time>2011-01-19T20:37:52Z</time>
      </trkpt>
      <trkpt lat="59.5992233" lon="17.5128134">
        <ele>23.6896</ele>
        <time>2011-01-19T20:37:57Z</time>
      </trkpt>
      <trkpt lat="59.5992248" lon="17.5131119">
        <ele>27.0543</ele>
        <time>2011-01-19T20:38:01Z</time>
      </trkpt>
      <trkpt lat="59.5991566" lon="17.5134096">
        <ele>25.1317</ele>
        <time>2011-01-19T20:38:05Z</time>
      </trkpt>
      <trkpt lat="59.5990473" lon="17.5136399">
        <ele>25.6123</ele>
        <time>2011-01-19T20:38:10Z</time>
      </trkpt>
      <trkpt lat="59.5989657" lon="17.5137782">
        <ele>25.1317</ele>
        <time>2011-01-19T20:38:14Z</time>
      </trkpt>
      <trkpt lat="59.598868" lon="17.513848">
        <ele>26.0929</ele>
        <time>2011-01-19T20:38:18Z</time>
      </trkpt>
      <trkpt lat="59.5987694" lon="17.5138795">
        <ele>27.5349</ele>
        <time>2011-01-19T20:38:22Z</time>
      </trkpt>
      <trkpt lat="59.5986725" lon="17.5138775">
        <ele>29.9381</ele>
        <time>2011-01-19T20:38:27Z</time>
      </trkpt>
      <trkpt lat="59.5985467" lon="17.5138517">
        <ele>31.3801</ele>
        <time>2011-01-19T20:38:31Z</time>
      </trkpt>
      <trkpt lat="59.5984012" lon="17.5138583">
        <ele>32.8223</ele>
        <time>2011-01-19T20:38:36Z</time>
      </trkpt>
      <trkpt lat="59.5982592" lon="17.5138954">
        <ele>35.2255</ele>
        <time>2011-01-19T20:38:41Z</time>
      </trkpt>
      <trkpt lat="59.598138" lon="17.5139338">
        <ele>37.6287</ele>
        <time>2011-01-19T20:38:45Z</time>
      </trkpt>
      <trkpt lat="59.5980411" lon="17.5139695">
        <ele>38.5901</ele>
        <time>2011-01-19T20:38:49Z</time>
      </trkpt>
      <trkpt lat="59.5979123" lon="17.5140615">
        <ele>39.0707</ele>
        <time>2011-01-19T20:38:54Z</time>
      </trkpt>
      <trkpt lat="59.5978154" lon="17.5142166">
        <ele>40.5128</ele>
        <time>2011-01-19T20:38:58Z</time>
      </trkpt>
      <trkpt lat="59.5977318" lon="17.5143955">
        <ele>40.5128</ele>
        <time>2011-01-19T20:39:02Z</time>
      </trkpt>
      <trkpt lat="59.597621" lon="17.5145347">
        <ele>40.9934</ele>
        <time>2011-01-19T20:39:06Z</time>
      </trkpt>
      <trkpt lat="59.5974647" lon="17.5146229">
        <ele>41.9547</ele>
        <time>2011-01-19T20:39:11Z</time>
      </trkpt>
      <trkpt lat="59.5973001" lon="17.5146913">
        <ele>43.3966</ele>
        <time>2011-01-19T20:39:16Z</time>
      </trkpt>
      <trkpt lat="59.597157" lon="17.5147493">
        <ele>44.358</ele>
        <time>2011-01-19T20:39:21Z</time>
      </trkpt>
      <trkpt lat="59.5969757" lon="17.5148347">
        <ele>44.8386</ele>
        <time>2011-01-19T20:39:27Z</time>
      </trkpt>
      <trkpt lat="59.5968413" lon="17.5149561">
        <ele>44.8386</ele>
        <time>2011-01-19T20:39:32Z</time>
      </trkpt>
      <trkpt lat="59.5967023" lon="17.5150758">
        <ele>43.3966</ele>
        <time>2011-01-19T20:39:37Z</time>
      </trkpt>
      <trkpt lat="59.5965986" lon="17.5151866">
        <ele>42.916</ele>
        <time>2011-01-19T20:39:41Z</time>
      </trkpt>
      <trkpt lat="59.5964461" lon="17.5153388">
        <ele>42.4354</ele>
        <time>2011-01-19T20:39:47Z</time>
      </trkpt>
      <trkpt lat="59.5963539" lon="17.5154434">
        <ele>42.916</ele>
        <time>2011-01-19T20:39:51Z</time>
      </trkpt>
      <trkpt lat="59.5962275" lon="17.5155919">
        <ele>42.916</ele>
        <time>2011-01-19T20:39:56Z</time>
      </trkpt>
      <trkpt lat="59.5960966" lon="17.5157422">
        <ele>42.4354</ele>
        <time>2011-01-19T20:40:01Z</time>
      </trkpt>
      <trkpt lat="59.5959775" lon="17.5158905">
        <ele>41.474</ele>
        <time>2011-01-19T20:40:05Z</time>
      </trkpt>
      <trkpt lat="59.5958812" lon="17.5160175">
        <ele>41.474</ele>
        <time>2011-01-19T20:40:09Z</time>
      </trkpt>
      <trkpt lat="59.595806" lon="17.5161837">
        <ele>42.916</ele>
        <time>2011-01-19T20:40:14Z</time>
      </trkpt>
      <trkpt lat="59.5957566" lon="17.5164663">
        <ele>45.7999</ele>
        <time>2011-01-19T20:40:19Z</time>
      </trkpt>
      <trkpt lat="59.5957145" lon="17.5167284">
        <ele>47.7225</ele>
        <time>2011-01-19T20:40:23Z</time>
      </trkpt>
      <trkpt lat="59.595644" lon="17.5170177">
        <ele>48.684</ele>
        <time>2011-01-19T20:40:27Z</time>
      </trkpt>
      <trkpt lat="59.5955917" lon="17.5171922">
        <ele>48.684</ele>
        <time>2011-01-19T20:40:29Z</time>
      </trkpt>
      <trkpt lat="59.5953646" lon="17.5174699">
        <ele>47.7225</ele>
        <time>2011-01-19T20:40:33Z</time>
      </trkpt>
      <trkpt lat="59.5952875" lon="17.5175067">
        <ele>47.2418</ele>
        <time>2011-01-19T20:40:34Z</time>
      </trkpt>
      <trkpt lat="59.594769" lon="17.5176517">
        <ele>44.8386</ele>
        <time>2011-01-19T20:40:41Z</time>
      </trkpt>
      <trkpt lat="59.5943972" lon="17.5177921">
        <ele>42.916</ele>
        <time>2011-01-19T20:40:47Z</time>
      </trkpt>
      <trkpt lat="59.5942425" lon="17.517929">
        <ele>41.474</ele>
        <time>2011-01-19T20:40:50Z</time>
      </trkpt>
      <trkpt lat="59.5939763" lon="17.5181609">
        <ele>39.0707</ele>
        <time>2011-01-19T20:40:55Z</time>
      </trkpt>
      <trkpt lat="59.5937226" lon="17.5182685">
        <ele>38.5901</ele>
        <time>2011-01-19T20:41:01Z</time>
      </trkpt>
      <trkpt lat="59.5936335" lon="17.5183084">
        <ele>37.6287</ele>
        <time>2011-01-19T20:41:03Z</time>
      </trkpt>
      <trkpt lat="59.5935862" lon="17.5183292">
        <ele>37.6287</ele>
        <time>2011-01-19T20:41:04Z</time>
      </trkpt>
      <trkpt lat="59.5934976" lon="17.5183884">
        <ele>37.6287</ele>
        <time>2011-01-19T20:41:06Z</time>
      </trkpt>
      <trkpt lat="59.5934191" lon="17.5184675">
        <ele>38.1094</ele>
        <time>2011-01-19T20:41:08Z</time>
      </trkpt>
      <trkpt lat="59.5932497" lon="17.5186846">
        <ele>39.5513</ele>
        <time>2011-01-19T20:41:13Z</time>
      </trkpt>
      <trkpt lat="59.5930497" lon="17.5188075">
        <ele>39.5513</ele>
        <time>2011-01-19T20:41:18Z</time>
      </trkpt>
      <trkpt lat="59.592897" lon="17.518671">
        <ele>39.0707</ele>
        <time>2011-01-19T20:41:22Z</time>
      </trkpt>
      <trkpt lat="59.5928302" lon="17.5185381">
        <ele>39.0707</ele>
        <time>2011-01-19T20:41:24Z</time>
      </trkpt>
      <trkpt lat="59.5926683" lon="17.5181981">
        <ele>40.5128</ele>
        <time>2011-01-19T20:41:29Z</time>
      </trkpt>
      <trkpt lat="59.5926104" lon="17.5180547">
        <ele>40.9934</ele>
        <time>2011-01-19T20:41:31Z</time>
      </trkpt>
      <trkpt lat="59.592569" lon="17.517594">
        <ele>42.916</ele>
        <time>2011-01-19T20:41:37Z</time>
      </trkpt>
      <trkpt lat="59.5925924" lon="17.5172763">
        <ele>43.3966</ele>
        <time>2011-01-19T20:41:41Z</time>
      </trkpt>
      <trkpt lat="59.5926105" lon="17.5167415">
        <ele>44.8386</ele>
        <time>2011-01-19T20:41:47Z</time>
      </trkpt>
      <trkpt lat="59.5927198" lon="17.5163023">
        <ele>45.3192</ele>
        <time>2011-01-19T20:41:51Z</time>
      </trkpt>
      <trkpt lat="59.5929558" lon="17.5156667">
        <ele>43.8773</ele>
        <time>2011-01-19T20:41:57Z</time>
      </trkpt>
      <trkpt lat="59.5932111" lon="17.5149703">
        <ele>42.4354</ele>
        <time>2011-01-19T20:42:03Z</time>
      </trkpt>
      <trkpt lat="59.5934675" lon="17.5146007">
        <ele>41.474</ele>
        <time>2011-01-19T20:42:08Z</time>
      </trkpt>
      <trkpt lat="59.5937541" lon="17.5144327">
        <ele>39.0707</ele>
        <time>2011-01-19T20:42:14Z</time>
      </trkpt>
      <trkpt lat="59.5938982" lon="17.5145266">
        <ele>38.1094</ele>
        <time>2011-01-19T20:42:18Z</time>
      </trkpt>
      <trkpt lat="59.5939208" lon="17.5145757">
        <ele>38.5901</ele>
        <time>2011-01-19T20:42:19Z</time>
      </trkpt>
      <trkpt lat="59.594042" lon="17.5148948">
        <ele>40.0321</ele>
        <time>2011-01-19T20:42:25Z</time>
      </trkpt>
      <trkpt lat="59.5941288" lon="17.5150984">
        <ele>39.0707</ele>
        <time>2011-01-19T20:42:30Z</time>
      </trkpt>
      <trkpt lat="59.5941913" lon="17.5151834">
        <ele>36.6675</ele>
        <time>2011-01-19T20:42:34Z</time>
      </trkpt>
      <trkpt lat="59.5943257" lon="17.5153096">
        <ele>35.2255</ele>
        <time>2011-01-19T20:42:40Z</time>
      </trkpt>
      <trkpt lat="59.5944482" lon="17.5154237">
        <ele>34.7449</ele>
        <time>2011-01-19T20:42:45Z</time>
      </trkpt>
      <trkpt lat="59.5945575" lon="17.515492">
        <ele>38.5901</ele>
        <time>2011-01-19T20:42:49Z</time>
      </trkpt>
      <trkpt lat="59.5946949" lon="17.5155314">
        <ele>43.8773</ele>
        <time>2011-01-19T20:42:53Z</time>
      </trkpt>
      <trkpt lat="59.5948031" lon="17.5155999">
        <ele>45.7999</ele>
        <time>2011-01-19T20:42:57Z</time>
      </trkpt>
      <trkpt lat="59.594931" lon="17.5156316">
        <ele>48.2034</ele>
        <time>2011-01-19T20:43:01Z</time>
      </trkpt>
      <trkpt lat="59.5950459" lon="17.5156712">
        <ele>50.126</ele>
        <time>2011-01-19T20:43:05Z</time>
      </trkpt>
      <trkpt lat="59.5951825" lon="17.5156722">
        <ele>51.0872</ele>
        <time>2011-01-19T20:43:10Z</time>
      </trkpt>
      <trkpt lat="59.5953096" lon="17.5155798">
        <ele>50.126</ele>
        <time>2011-01-19T20:43:15Z</time>
      </trkpt>
      <trkpt lat="59.5953999" lon="17.5153911">
        <ele>49.1646</ele>
        <time>2011-01-19T20:43:20Z</time>
      </trkpt>
      <trkpt lat="59.5954972" lon="17.5151496">
        <ele>48.684</ele>
        <time>2011-01-19T20:43:25Z</time>
      </trkpt>
      <trkpt lat="59.5955554" lon="17.5149152">
        <ele>49.1646</ele>
        <time>2011-01-19T20:43:29Z</time>
      </trkpt>
      <trkpt lat="59.5956549" lon="17.5144989">
        <ele>48.2034</ele>
        <time>2011-01-19T20:43:34Z</time>
      </trkpt>
      <trkpt lat="59.5956885" lon="17.5142008">
        <ele>48.2034</ele>
        <time>2011-01-19T20:43:38Z</time>
      </trkpt>
      <trkpt lat="59.5957097" lon="17.5137305">
        <ele>46.2806</ele>
        <time>2011-01-19T20:43:43Z</time>
      </trkpt>
      <trkpt lat="59.5957273" lon="17.5133439">
        <ele>44.8386</ele>
        <time>2011-01-19T20:43:46Z</time>
      </trkpt>
      <trkpt lat="59.5958732" lon="17.5128314">
        <ele>44.358</ele>
        <time>2011-01-19T20:43:50Z</time>
      </trkpt>
      <trkpt lat="59.596006" lon="17.5127167">
        <ele>42.916</ele>
        <time>2011-01-19T20:43:52Z</time>
      </trkpt>
      <trkpt lat="59.5963914" lon="17.5125579">
        <ele>42.916</ele>
        <time>2011-01-19T20:43:58Z</time>
      </trkpt>
      <trkpt lat="59.5964451" lon="17.5125405">
        <ele>42.916</ele>
        <time>2011-01-19T20:43:59Z</time>
      </trkpt>
      <trkpt lat="59.596654" lon="17.5125296">
        <ele>41.9547</ele>
        <time>2011-01-19T20:44:03Z</time>
      </trkpt>
      <trkpt lat="59.5968377" lon="17.5124593">
        <ele>41.9547</ele>
        <time>2011-01-19T20:44:07Z</time>
      </trkpt>
      <trkpt lat="59.5970643" lon="17.5123427">
        <ele>42.916</ele>
        <time>2011-01-19T20:44:12Z</time>
      </trkpt>
      <trkpt lat="59.5973574" lon="17.5122762">
        <ele>43.3966</ele>
        <time>2011-01-19T20:44:18Z</time>
      </trkpt>
      <trkpt lat="59.5975676" lon="17.5121484">
        <ele>41.9547</ele>
        <time>2011-01-19T20:44:23Z</time>
      </trkpt>
      <trkpt lat="59.5977004" lon="17.5120636">
        <ele>41.474</ele>
        <time>2011-01-19T20:44:26Z</time>
      </trkpt>
      <trkpt lat="59.5977941" lon="17.511991">
        <ele>40.9934</ele>
        <time>2011-01-19T20:44:28Z</time>
      </trkpt>
      <trkpt lat="59.597843" lon="17.5119401">
        <ele>40.5128</ele>
        <time>2011-01-19T20:44:29Z</time>
      </trkpt>
      <trkpt lat="59.5980376" lon="17.5117174">
        <ele>39.0707</ele>
        <time>2011-01-19T20:44:33Z</time>
      </trkpt>
      <trkpt lat="59.5981237" lon="17.5115789">
        <ele>36.6675</ele>
        <time>2011-01-19T20:44:35Z</time>
      </trkpt>
      <trkpt lat="59.5983258" lon="17.5112388">
        <ele>32.8223</ele>
        <time>2011-01-19T20:44:40Z</time>
      </trkpt>
      <trkpt lat="59.5984686" lon="17.5110741">
        <ele>31.8607</ele>
        <time>2011-01-19T20:44:43Z</time>
      </trkpt>
      <trkpt lat="59.5986804" lon="17.5109471">
        <ele>29.9381</ele>
        <time>2011-01-19T20:44:47Z</time>
      </trkpt>
      <trkpt lat="59.5987831" lon="17.5109029">
        <ele>29.4575</ele>
        <time>2011-01-19T20:44:49Z</time>
      </trkpt>
      <trkpt lat="59.5989655" lon="17.5107896">
        <ele>28.4962</ele>
        <time>2011-01-19T20:44:53Z</time>
      </trkpt>
      <trkpt lat="59.5990551" lon="17.5107543">
        <ele>28.0155</ele>
        <time>2011-01-19T20:44:55Z</time>
      </trkpt>
      <trkpt lat="59.5991498" lon="17.5107402">
        <ele>27.0543</ele>
        <time>2011-01-19T20:44:57Z</time>
      </trkpt>
      <trkpt lat="59.5993335" lon="17.5108565">
        <ele>23.209</ele>
        <time>2011-01-19T20:45:01Z</time>
      </trkpt>
      <trkpt lat="59.5994062" lon="17.511012">
        <ele>21.767</ele>
        <time>2011-01-19T20:45:03Z</time>
      </trkpt>
      <trkpt lat="59.5994729" lon="17.5112568">
        <ele>21.2864</ele>
        <time>2011-01-19T20:45:06Z</time>
      </trkpt>
      <trkpt lat="59.5995331" lon="17.5116402">
        <ele>24.651</ele>
        <time>2011-01-19T20:45:11Z</time>
      </trkpt>
      <trkpt lat="59.5995279" lon="17.5119372">
        <ele>25.1317</ele>
        <time>2011-01-19T20:45:15Z</time>
      </trkpt>
      <trkpt lat="59.5994016" lon="17.5122084">
        <ele>21.767</ele>
        <time>2011-01-19T20:45:20Z</time>
      </trkpt>
      <trkpt lat="59.5992441" lon="17.512394">
        <ele>22.7283</ele>
        <time>2011-01-19T20:45:25Z</time>
      </trkpt>
      <trkpt lat="59.5991979" lon="17.5125846">
        <ele>25.1317</ele>
        <time>2011-01-19T20:45:29Z</time>
      </trkpt>
      <trkpt lat="59.5991913" lon="17.5128757">
        <ele>26.5736</ele>
        <time>2011-01-19T20:45:33Z</time>
      </trkpt>
      <trkpt lat="59.5991943" lon="17.5131754">
        <ele>27.5349</ele>
        <time>2011-01-19T20:45:37Z</time>
      </trkpt>
      <trkpt lat="59.5991118" lon="17.5134046">
        <ele>26.5736</ele>
        <time>2011-01-19T20:45:41Z</time>
      </trkpt>
      <trkpt lat="59.5990059" lon="17.5136497">
        <ele>28.0155</ele>
        <time>2011-01-19T20:45:46Z</time>
      </trkpt>
      <trkpt lat="59.5989196" lon="17.513788">
        <ele>28.9769</ele>
        <time>2011-01-19T20:45:50Z</time>
      </trkpt>
      <trkpt lat="59.5988467" lon="17.5138646">
        <ele>29.4575</ele>
        <time>2011-01-19T20:45:53Z</time>
      </trkpt>
      <trkpt lat="59.5987275" lon="17.513898">
        <ele>32.3416</ele>
        <time>2011-01-19T20:45:59Z</time>
      </trkpt>
      <trkpt lat="59.5986059" lon="17.5139116">
        <ele>35.7061</ele>
        <time>2011-01-19T20:46:04Z</time>
      </trkpt>
      <trkpt lat="59.5984843" lon="17.5138967">
        <ele>36.6675</ele>
        <time>2011-01-19T20:46:08Z</time>
      </trkpt>
      <trkpt lat="59.5983646" lon="17.5138779">
        <ele>37.1481</ele>
        <time>2011-01-19T20:46:12Z</time>
      </trkpt>
      <trkpt lat="59.5982346" lon="17.5138612">
        <ele>38.1094</ele>
        <time>2011-01-19T20:46:17Z</time>
      </trkpt>
      <trkpt lat="59.5982096" lon="17.5138749">
        <ele>38.1094</ele>
        <time>2011-01-19T20:46:18Z</time>
      </trkpt>
      <trkpt lat="59.5981086" lon="17.5139127">
        <ele>38.5901</ele>
        <time>2011-01-19T20:46:22Z</time>
      </trkpt>
      <trkpt lat="59.5980636" lon="17.513935">
        <ele>39.0707</ele>
        <time>2011-01-19T20:46:24Z</time>
      </trkpt>
      <trkpt lat="59.5979164" lon="17.5140484">
        <ele>40.5128</ele>
        <time>2011-01-19T20:46:30Z</time>
      </trkpt>
      <trkpt lat="59.5978557" lon="17.5141525">
        <ele>40.5128</ele>
        <time>2011-01-19T20:46:33Z</time>
      </trkpt>
      <trkpt lat="59.597748" lon="17.5143303">
        <ele>40.5128</ele>
        <time>2011-01-19T20:46:38Z</time>
      </trkpt>
      <trkpt lat="59.5976165" lon="17.5144799">
        <ele>40.9934</ele>
        <time>2011-01-19T20:46:43Z</time>
      </trkpt>
      <trkpt lat="59.5974585" lon="17.5146241">
        <ele>40.5128</ele>
        <time>2011-01-19T20:46:48Z</time>
      </trkpt>
      <trkpt lat="59.5973052" lon="17.514728">
        <ele>40.5128</ele>
        <time>2011-01-19T20:46:53Z</time>
      </trkpt>
      <trkpt lat="59.5971669" lon="17.5147757">
        <ele>39.5513</ele>
        <time>2011-01-19T20:46:57Z</time>
      </trkpt>
      <trkpt lat="59.5970289" lon="17.5148312">
        <ele>40.0321</ele>
        <time>2011-01-19T20:47:01Z</time>
      </trkpt>
      <trkpt lat="59.5968835" lon="17.5149161">
        <ele>39.5513</ele>
        <time>2011-01-19T20:47:05Z</time>
      </trkpt>
      <trkpt lat="59.5967233" lon="17.5150648">
        <ele>40.0321</ele>
        <time>2011-01-19T20:47:11Z</time>
      </trkpt>
      <trkpt lat="59.5965756" lon="17.5152161">
        <ele>41.474</ele>
        <time>2011-01-19T20:47:16Z</time>
      </trkpt>
      <trkpt lat="59.5964396" lon="17.5153296">
        <ele>41.9547</ele>
        <time>2011-01-19T20:47:21Z</time>
      </trkpt>
      <trkpt lat="59.5963323" lon="17.5154363">
        <ele>42.4354</ele>
        <time>2011-01-19T20:47:25Z</time>
      </trkpt>
      <trkpt lat="59.5961884" lon="17.5155753">
        <ele>44.8386</ele>
        <time>2011-01-19T20:47:30Z</time>
      </trkpt>
      <trkpt lat="59.5960758" lon="17.5156906">
        <ele>45.3192</ele>
        <time>2011-01-19T20:47:35Z</time>
      </trkpt>
      <trkpt lat="59.5959707" lon="17.5158075">
        <ele>45.7999</ele>
        <time>2011-01-19T20:47:39Z</time>
      </trkpt>
      <trkpt lat="59.5958742" lon="17.5159557">
        <ele>46.2806</ele>
        <time>2011-01-19T20:47:43Z</time>
      </trkpt>
      <trkpt lat="59.5957993" lon="17.5161137">
        <ele>46.7612</ele>
        <time>2011-01-19T20:47:47Z</time>
      </trkpt>
      <trkpt lat="59.5957594" lon="17.5162923">
        <ele>48.2034</ele>
        <time>2011-01-19T20:47:51Z</time>
      </trkpt>
      <trkpt lat="59.5957299" lon="17.5165461">
        <ele>48.684</ele>
        <time>2011-01-19T20:47:55Z</time>
      </trkpt>
      <trkpt lat="59.5956775" lon="17.5168716">
        <ele>49.1646</ele>
        <time>2011-01-19T20:48:00Z</time>
      </trkpt>
      <trkpt lat="59.5955941" lon="17.5171685">
        <ele>47.2418</ele>
        <time>2011-01-19T20:48:04Z</time>
      </trkpt>
      <trkpt lat="59.5953285" lon="17.5174578">
        <ele>42.916</ele>
        <time>2011-01-19T20:48:08Z</time>
      </trkpt>
      <trkpt lat="59.5947605" lon="17.5176339">
        <ele>40.0321</ele>
        <time>2011-01-19T20:48:16Z</time>
      </trkpt>
      <trkpt lat="59.5945111" lon="17.5177267">
        <ele>39.5513</ele>
        <time>2011-01-19T20:48:20Z</time>
      </trkpt>
      <trkpt lat="59.5942881" lon="17.5178952">
        <ele>38.1094</ele>
        <time>2011-01-19T20:48:24Z</time>
      </trkpt>
      <trkpt lat="59.594178" lon="17.5179992">
        <ele>37.1481</ele>
        <time>2011-01-19T20:48:26Z</time>
      </trkpt>
      <trkpt lat="59.5940821" lon="17.5180682">
        <ele>36.1868</ele>
        <time>2011-01-19T20:48:28Z</time>
      </trkpt>
      <trkpt lat="59.5939146" lon="17.5181899">
        <ele>35.7061</ele>
        <time>2011-01-19T20:48:32Z</time>
      </trkpt>
      <trkpt lat="59.5937921" lon="17.5182898">
        <ele>35.2255</ele>
        <time>2011-01-19T20:48:35Z</time>
      </trkpt>
      <trkpt lat="59.5935746" lon="17.5183961">
        <ele>33.3029</ele>
        <time>2011-01-19T20:48:40Z</time>
      </trkpt>
      <trkpt lat="59.593495" lon="17.5184629">
        <ele>31.8607</ele>
        <time>2011-01-19T20:48:42Z</time>
      </trkpt>
      <trkpt lat="59.5932816" lon="17.5187069">
        <ele>30.8995</ele>
        <time>2011-01-19T20:48:48Z</time>
      </trkpt>
      <trkpt lat="59.5932438" lon="17.5187342">
        <ele>30.8995</ele>
        <time>2011-01-19T20:48:49Z</time>
      </trkpt>
      <trkpt lat="59.5931564" lon="17.5187839">
        <ele>30.4188</ele>
        <time>2011-01-19T20:48:51Z</time>
      </trkpt>
      <trkpt lat="59.5929882" lon="17.5187384">
        <ele>29.4575</ele>
        <time>2011-01-19T20:48:55Z</time>
      </trkpt>
      <trkpt lat="59.5927952" lon="17.5184904">
        <ele>28.4962</ele>
        <time>2011-01-19T20:49:00Z</time>
      </trkpt>
      <trkpt lat="59.5926276" lon="17.5182889">
        <ele>29.9381</ele>
        <time>2011-01-19T20:49:04Z</time>
      </trkpt>
      <trkpt lat="59.5925478" lon="17.5178636">
        <ele>34.2642</ele>
        <time>2011-01-19T20:49:09Z</time>
      </trkpt>
      <trkpt lat="59.5925501" lon="17.5177827">
        <ele>35.2255</ele>
        <time>2011-01-19T20:49:10Z</time>
      </trkpt>
      <trkpt lat="59.5925587" lon="17.5176168">
        <ele>35.7061</ele>
        <time>2011-01-19T20:49:12Z</time>
      </trkpt>
      <trkpt lat="59.592587" lon="17.5172941">
        <ele>37.6287</ele>
        <time>2011-01-19T20:49:16Z</time>
      </trkpt>
      <trkpt lat="59.5926052" lon="17.5169431">
        <ele>38.5901</ele>
        <time>2011-01-19T20:49:20Z</time>
      </trkpt>
      <trkpt lat="59.592627" lon="17.516583">
        <ele>38.5901</ele>
        <time>2011-01-19T20:49:23Z</time>
      </trkpt>
      <trkpt lat="59.592815" lon="17.5160402">
        <ele>39.0707</ele>
        <time>2011-01-19T20:49:28Z</time>
      </trkpt>
      <trkpt lat="59.5930578" lon="17.515347">
        <ele>38.5901</ele>
        <time>2011-01-19T20:49:34Z</time>
      </trkpt>
      <trkpt lat="59.5931922" lon="17.5149915">
        <ele>38.5901</ele>
        <time>2011-01-19T20:49:37Z</time>
      </trkpt>
      <trkpt lat="59.5934604" lon="17.5146179">
        <ele>37.6287</ele>
        <time>2011-01-19T20:49:42Z</time>
      </trkpt>
      <trkpt lat="59.5935113" lon="17.5145732">
        <ele>37.6287</ele>
        <time>2011-01-19T20:49:43Z</time>
      </trkpt>
      <trkpt lat="59.5936916" lon="17.5144416">
        <ele>37.1481</ele>
        <time>2011-01-19T20:49:47Z</time>
      </trkpt>
      <trkpt lat="59.5937735" lon="17.5144344">
        <ele>36.6675</ele>
        <time>2011-01-19T20:49:49Z</time>
      </trkpt>
      <trkpt lat="59.5939146" lon="17.5145932">
        <ele>36.6675</ele>
        <time>2011-01-19T20:49:53Z</time>
      </trkpt>
      <trkpt lat="59.5940278" lon="17.5148372">
        <ele>38.1094</ele>
        <time>2011-01-19T20:49:58Z</time>
      </trkpt>
      <trkpt lat="59.594151" lon="17.5150077">
        <ele>40.9934</ele>
        <time>2011-01-19T20:50:02Z</time>
      </trkpt>
      <trkpt lat="59.5942531" lon="17.5151347">
        <ele>41.9547</ele>
        <time>2011-01-19T20:50:06Z</time>
      </trkpt>
      <trkpt lat="59.5943394" lon="17.5152221">
        <ele>41.474</ele>
        <time>2011-01-19T20:50:10Z</time>
      </trkpt>
      <trkpt lat="59.5943624" lon="17.5152568">
        <ele>40.9934</ele>
        <time>2011-01-19T20:50:11Z</time>
      </trkpt>
      <trkpt lat="59.5944997" lon="17.5154046">
        <ele>39.0707</ele>
        <time>2011-01-19T20:50:17Z</time>
      </trkpt>
      <trkpt lat="59.5946193" lon="17.5154873">
        <ele>40.5128</ele>
        <time>2011-01-19T20:50:22Z</time>
      </trkpt>
      <trkpt lat="59.5947477" lon="17.5155658">
        <ele>40.0321</ele>
        <time>2011-01-19T20:50:26Z</time>
      </trkpt>
      <trkpt lat="59.5948866" lon="17.5155847">
        <ele>40.5128</ele>
        <time>2011-01-19T20:50:30Z</time>
      </trkpt>
      <trkpt lat="59.5950093" lon="17.5156055">
        <ele>41.474</ele>
        <time>2011-01-19T20:50:34Z</time>
      </trkpt>
      <trkpt lat="59.5951212" lon="17.5156262">
        <ele>42.4354</ele>
        <time>2011-01-19T20:50:38Z</time>
      </trkpt>
      <trkpt lat="59.5952766" lon="17.515581">
        <ele>42.4354</ele>
        <time>2011-01-19T20:50:43Z</time>
      </trkpt>
      <trkpt lat="59.5953621" lon="17.5154735">
        <ele>41.9547</ele>
        <time>2011-01-19T20:50:47Z</time>
      </trkpt>
      <trkpt lat="59.5954461" lon="17.5153324">
        <ele>41.9547</ele>
        <time>2011-01-19T20:50:51Z</time>
      </trkpt>
      <trkpt lat="59.5955248" lon="17.5151446">
        <ele>41.9547</ele>
        <time>2011-01-19T20:50:55Z</time>
      </trkpt>
      <trkpt lat="59.5956071" lon="17.5148168">
        <ele>41.474</ele>
        <time>2011-01-19T20:51:00Z</time>
      </trkpt>
      <trkpt lat="59.5956815" lon="17.5144656">
        <ele>40.9934</ele>
        <time>2011-01-19T20:51:05Z</time>
      </trkpt>
      <trkpt lat="59.5957449" lon="17.5141574">
        <ele>39.5513</ele>
        <time>2011-01-19T20:51:09Z</time>
      </trkpt>
      <trkpt lat="59.5957541" lon="17.5140675">
        <ele>40.0321</ele>
        <time>2011-01-19T20:51:10Z</time>
      </trkpt>
      <trkpt lat="59.5957567" lon="17.5135258">
        <ele>40.0321</ele>
        <time>2011-01-19T20:51:15Z</time>
      </trkpt>
      <trkpt lat="59.595761" lon="17.5133806">
        <ele>40.0321</ele>
        <time>2011-01-19T20:51:16Z</time>
      </trkpt>
      <trkpt lat="59.5959065" lon="17.5128622">
        <ele>40.0321</ele>
        <time>2011-01-19T20:51:20Z</time>
      </trkpt>
      <trkpt lat="59.5959739" lon="17.5127995">
        <ele>40.0321</ele>
        <time>2011-01-19T20:51:21Z</time>
      </trkpt>
      <trkpt lat="59.5963784" lon="17.5125985">
        <ele>39.5513</ele>
        <time>2011-01-19T20:51:27Z</time>
      </trkpt>
      <trkpt lat="59.5966264" lon="17.5125752">
        <ele>39.0707</ele>
        <time>2011-01-19T20:51:31Z</time>
      </trkpt>
      <trkpt lat="59.596847" lon="17.5125022">
        <ele>39.0707</ele>
        <time>2011-01-19T20:51:36Z</time>
      </trkpt>
      <trkpt lat="59.5969791" lon="17.5124038">
        <ele>38.5901</ele>
        <time>2011-01-19T20:51:39Z</time>
      </trkpt>
      <trkpt lat="59.5971165" lon="17.5123002">
        <ele>39.5513</ele>
        <time>2011-01-19T20:51:42Z</time>
      </trkpt>
      <trkpt lat="59.5973021" lon="17.5121827">
        <ele>39.0707</ele>
        <time>2011-01-19T20:51:46Z</time>
      </trkpt>
      <trkpt lat="59.5973482" lon="17.5121535">
        <ele>38.5901</ele>
        <time>2011-01-19T20:51:47Z</time>
      </trkpt>
      <trkpt lat="59.59753" lon="17.5120671">
        <ele>38.5901</ele>
        <time>2011-01-19T20:51:51Z</time>
      </trkpt>
      <trkpt lat="59.5978066" lon="17.5119235">
        <ele>39.0707</ele>
        <time>2011-01-19T20:51:56Z</time>
      </trkpt>
      <trkpt lat="59.5980175" lon="17.5117162">
        <ele>38.1094</ele>
        <time>2011-01-19T20:52:00Z</time>
      </trkpt>
      <trkpt lat="59.5982609" lon="17.511376">
        <ele>33.7834</ele>
        <time>2011-01-19T20:52:05Z</time>
      </trkpt>
      <trkpt lat="59.598395" lon="17.5111806">
        <ele>30.8995</ele>
        <time>2011-01-19T20:52:08Z</time>
      </trkpt>
      <trkpt lat="59.5984912" lon="17.5110699">
        <ele>30.4188</ele>
        <time>2011-01-19T20:52:10Z</time>
      </trkpt>
      <trkpt lat="59.5988087" lon="17.5108699">
        <ele>28.9769</ele>
        <time>2011-01-19T20:52:16Z</time>
      </trkpt>
      <trkpt lat="59.5990131" lon="17.510791">
        <ele>28.9769</ele>
        <time>2011-01-19T20:52:20Z</time>
      </trkpt>
      <trkpt lat="59.5991762" lon="17.5107392">
        <ele>28.9769</ele>
        <time>2011-01-19T20:52:23Z</time>
      </trkpt>
      <trkpt lat="59.5993302" lon="17.5108206">
        <ele>27.5349</ele>
        <time>2011-01-19T20:52:26Z</time>
      </trkpt>
      <trkpt lat="59.5994492" lon="17.5109901">
        <ele>25.6123</ele>
        <time>2011-01-19T20:52:29Z</time>
      </trkpt>
      <trkpt lat="59.5995667" lon="17.511373">
        <ele>24.651</ele>
        <time>2011-01-19T20:52:34Z</time>
      </trkpt>
      <trkpt lat="59.5995728" lon="17.5115181">
        <ele>25.6123</ele>
        <time>2011-01-19T20:52:36Z</time>
      </trkpt>
      <trkpt lat="59.5995563" lon="17.5119503">
        <ele>26.0929</ele>
        <time>2011-01-19T20:52:42Z</time>
      </trkpt>
      <trkpt lat="59.5994412" lon="17.5121998">
        <ele>21.2864</ele>
        <time>2011-01-19T20:52:46Z</time>
      </trkpt>
      <trkpt lat="59.5993102" lon="17.512326">
        <ele>18.8831</ele>
        <time>2011-01-19T20:52:50Z</time>
      </trkpt>
      <trkpt lat="59.599226" lon="17.5124577">
        <ele>17.4412</ele>
        <time>2011-01-19T20:52:54Z</time>
      </trkpt>
      <trkpt lat="59.5991959" lon="17.5126859">
        <ele>18.4023</ele>
        <time>2011-01-19T20:52:58Z</time>
      </trkpt>
      <trkpt lat="59.5992114" lon="17.512981">
        <ele>20.325</ele>
        <time>2011-01-19T20:53:02Z</time>
      </trkpt>
      <trkpt lat="59.5992182" lon="17.5130585">
        <ele>20.325</ele>
        <time>2011-01-19T20:53:03Z</time>
      </trkpt>
      <trkpt lat="59.5991457" lon="17.5133769">
        <ele>22.7283</ele>
        <time>2011-01-19T20:53:08Z</time>
      </trkpt>
      <trkpt lat="59.5990616" lon="17.5135603">
        <ele>23.6896</ele>
        <time>2011-01-19T20:53:12Z</time>
      </trkpt>
      <trkpt lat="59.5989456" lon="17.5137644">
        <ele>25.6123</ele>
        <time>2011-01-19T20:53:17Z</time>
      </trkpt>
      <trkpt lat="59.5988546" lon="17.5138585">
        <ele>25.6123</ele>
        <time>2011-01-19T20:53:21Z</time>
      </trkpt>
      <trkpt lat="59.598825" lon="17.513876">
        <ele>26.0929</ele>
        <time>2011-01-19T20:53:23Z</time>
      </trkpt>
      <trkpt lat="59.5987368" lon="17.5139442">
        <ele>29.4575</ele>
        <time>2011-01-19T20:53:28Z</time>
      </trkpt>
      <trkpt lat="59.5986285" lon="17.5139246">
        <ele>31.3801</ele>
        <time>2011-01-19T20:53:33Z</time>
      </trkpt>
      <trkpt lat="59.5985059" lon="17.5138931">
        <ele>32.3416</ele>
        <time>2011-01-19T20:53:37Z</time>
      </trkpt>
      <trkpt lat="59.5983737" lon="17.5138651">
        <ele>30.8995</ele>
        <time>2011-01-19T20:53:42Z</time>
      </trkpt>
      <trkpt lat="59.5983195" lon="17.513859">
        <ele>30.4188</ele>
        <time>2011-01-19T20:53:44Z</time>
      </trkpt>
      <trkpt lat="59.5982014" lon="17.5138576">
        <ele>29.9381</ele>
        <time>2011-01-19T20:53:49Z</time>
      </trkpt>
      <trkpt lat="59.5981567" lon="17.5138941">
        <ele>29.9381</ele>
        <time>2011-01-19T20:53:51Z</time>
      </trkpt>
      <trkpt lat="59.5980203" lon="17.5139832">
        <ele>30.8995</ele>
        <time>2011-01-19T20:53:57Z</time>
      </trkpt>
      <trkpt lat="59.597916" lon="17.5141337">
        <ele>32.3416</ele>
        <time>2011-01-19T20:54:01Z</time>
      </trkpt>
      <trkpt lat="59.5978075" lon="17.514343">
        <ele>32.8223</ele>
        <time>2011-01-19T20:54:06Z</time>
      </trkpt>
      <trkpt lat="59.5977154" lon="17.5144303">
        <ele>34.2642</ele>
        <time>2011-01-19T20:54:09Z</time>
      </trkpt>
      <trkpt lat="59.5976626" lon="17.514458">
        <ele>34.7449</ele>
        <time>2011-01-19T20:54:11Z</time>
      </trkpt>
      <trkpt lat="59.5975241" lon="17.5145866">
        <ele>34.2642</ele>
        <time>2011-01-19T20:54:16Z</time>
      </trkpt>
      <trkpt lat="59.597372" lon="17.5146329">
        <ele>34.2642</ele>
        <time>2011-01-19T20:54:21Z</time>
      </trkpt>
      <trkpt lat="59.5972389" lon="17.5146722">
        <ele>34.2642</ele>
        <time>2011-01-19T20:54:25Z</time>
      </trkpt>
      <trkpt lat="59.5971074" lon="17.5147346">
        <ele>32.8223</ele>
        <time>2011-01-19T20:54:29Z</time>
      </trkpt>
      <trkpt lat="59.5969685" lon="17.5148901">
        <ele>32.8223</ele>
        <time>2011-01-19T20:54:34Z</time>
      </trkpt>
      <trkpt lat="59.59684" lon="17.5150089">
        <ele>30.4188</ele>
        <time>2011-01-19T20:54:39Z</time>
      </trkpt>
      <trkpt lat="59.5966986" lon="17.5151338">
        <ele>30.4188</ele>
        <time>2011-01-19T20:54:44Z</time>
      </trkpt>
      <trkpt lat="59.5965654" lon="17.5152429">
        <ele>31.8607</ele>
        <time>2011-01-19T20:54:49Z</time>
      </trkpt>
      <trkpt lat="59.5964217" lon="17.5153721">
        <ele>32.3416</ele>
        <time>2011-01-19T20:54:54Z</time>
      </trkpt>
      <trkpt lat="59.5963104" lon="17.5154771">
        <ele>32.8223</ele>
        <time>2011-01-19T20:54:58Z</time>
      </trkpt>
      <trkpt lat="59.5962168" lon="17.5155714">
        <ele>34.2642</ele>
        <time>2011-01-19T20:55:02Z</time>
      </trkpt>
      <trkpt lat="59.5961063" lon="17.5156821">
        <ele>36.6675</ele>
        <time>2011-01-19T20:55:06Z</time>
      </trkpt>
      <trkpt lat="59.59599" lon="17.5158466">
        <ele>38.5901</ele>
        <time>2011-01-19T20:55:10Z</time>
      </trkpt>
      <trkpt lat="59.5958433" lon="17.5160423">
        <ele>40.0321</ele>
        <time>2011-01-19T20:55:15Z</time>
      </trkpt>
      <trkpt lat="59.5957827" lon="17.5162137">
        <ele>42.916</ele>
        <time>2011-01-19T20:55:19Z</time>
      </trkpt>
      <trkpt lat="59.5957447" lon="17.5164334">
        <ele>45.7999</ele>
        <time>2011-01-19T20:55:23Z</time>
      </trkpt>
      <trkpt lat="59.5957216" lon="17.5166736">
        <ele>47.2418</ele>
        <time>2011-01-19T20:55:27Z</time>
      </trkpt>
      <trkpt lat="59.5956542" lon="17.5169529">
        <ele>47.7225</ele>
        <time>2011-01-19T20:55:31Z</time>
      </trkpt>
      <trkpt lat="59.5955238" lon="17.5172761">
        <ele>46.2806</ele>
        <time>2011-01-19T20:55:35Z</time>
      </trkpt>
      <trkpt lat="59.5952589" lon="17.5174975">
        <ele>45.3192</ele>
        <time>2011-01-19T20:55:39Z</time>
      </trkpt>
      <trkpt lat="59.5947769" lon="17.5176309">
        <ele>43.3966</ele>
        <time>2011-01-19T20:55:46Z</time>
      </trkpt>
      <trkpt lat="59.5947188" lon="17.5176445">
        <ele>42.916</ele>
        <time>2011-01-19T20:55:47Z</time>
      </trkpt>
      <trkpt lat="59.5946587" lon="17.5176695">
        <ele>41.9547</ele>
        <time>2011-01-19T20:55:48Z</time>
      </trkpt>
    </trkseg>
  </trk>
</gpx>